createdAt,value
2022-09-25T00:03:38.950Z,89.99
2022-09-25T00:09:10.524Z,89.68
2022-09-25T00:14:42.280Z,89.81
2022-09-25T00:20:14.274Z,90.99
2022-09-25T00:25:46.105Z,91.27
2022-09-25T00:31:17.546Z,91.84
2022-09-25T00:36:49.173Z,91.35
2022-09-25T00:42:20.854Z,91.29
2022-09-25T00:47:52.698Z,91.57
2022-09-25T00:53:24.781Z,91.28
2022-09-25T00:58:56.145Z,89.83
2022-09-25T01:04:27.556Z,90.50
2022-09-25T01:09:58.882Z,90.20
2022-09-25T01:15:30.205Z,89.69
2022-09-25T01:21:02.108Z,89.29
2022-09-25T01:26:33.647Z,89.80
2022-09-25T01:32:05.366Z,89.96
2022-09-25T01:37:36.904Z,90.02
2022-09-25T01:43:08.383Z,91.01
2022-09-25T01:48:39.858Z,90.49
2022-09-25T01:59:43.430Z,90.30
2022-09-25T02:05:15.369Z,90.57
2022-09-25T02:10:47.037Z,90.90
2022-09-25T02:16:18.579Z,90.98
2022-09-25T02:21:50.120Z,90.00
2022-09-25T02:27:22.058Z,90.77
2022-09-25T02:32:53.646Z,90.75
2022-09-25T02:38:25.558Z,91.85
2022-09-25T02:43:57.335Z,91.58
2022-09-25T02:54:58.555Z,91.29
2022-09-25T03:00:30.519Z,91.29
2022-09-25T03:11:34.136Z,92.45
2022-09-25T03:17:05.831Z,92.20
2022-09-25T03:22:37.564Z,92.25
2022-09-25T03:28:09.400Z,91.83
2022-09-25T03:33:41.420Z,90.62
2022-09-25T03:39:13.039Z,90.68
2022-09-25T03:44:44.709Z,91.44
2022-09-25T03:47:08.125Z,91.64
2022-09-25T03:52:39.611Z,91.56
2022-09-25T03:58:11.141Z,91.68
2022-09-25T04:09:11.960Z,91.52
2022-09-25T04:20:14.796Z,91.37
2022-09-25T04:25:46.057Z,89.37
2022-09-25T04:31:17.304Z,90.82
2022-09-25T04:36:48.734Z,91.11
2022-09-25T04:42:20.437Z,91.58
2022-09-25T04:47:51.828Z,91.50
2022-09-25T04:53:23.532Z,91.61
2022-09-25T04:58:54.757Z,91.39
2022-09-25T05:04:26.031Z,91.50
2022-09-25T05:09:57.284Z,91.85
2022-09-25T05:15:28.597Z,91.95
2022-09-25T05:26:33.115Z,91.62
2022-09-25T05:32:04.462Z,91.61
2022-09-25T05:37:35.837Z,91.11
2022-09-25T05:43:07.018Z,91.42
2022-09-25T05:48:38.468Z,90.49
2022-09-25T05:54:10.191Z,91.16
2022-09-25T06:05:12.849Z,90.44
2022-09-25T06:10:44.155Z,90.98
2022-09-25T06:16:15.713Z,90.45
2022-09-25T06:21:46.927Z,90.25
2022-09-25T06:38:16.934Z,89.75
2022-09-25T06:43:48.255Z,89.91
2022-09-25T06:49:19.356Z,89.59
2022-09-25T06:54:50.828Z,89.72
2022-09-25T07:00:22.119Z,89.45
2022-09-25T07:05:53.486Z,89.04
2022-09-25T07:11:24.788Z,88.38
2022-09-25T07:16:56.548Z,88.01
2022-09-25T07:22:28.006Z,87.97
2022-09-25T07:27:59.216Z,87.71
2022-09-25T07:33:30.829Z,87.56
2022-09-25T07:39:02.640Z,86.72
2022-09-25T07:44:38.272Z,87.27
2022-09-25T07:50:05.385Z,87.26
2022-09-25T07:55:43.846Z,86.39
2022-09-25T08:01:15.301Z,85.98
2022-09-25T08:06:46.486Z,87.23
2022-09-25T08:12:17.768Z,87.34
2022-09-25T08:17:49.125Z,86.91
2022-09-25T08:23:20.266Z,86.01
2022-09-25T08:28:51.706Z,86.38
2022-09-25T08:39:54.747Z,87.06
2022-09-25T08:45:26.223Z,86.11
2022-09-25T08:50:58.091Z,86.38
2022-09-25T09:01:58.960Z,85.06
2022-09-25T09:07:30.668Z,85.36
2022-09-25T09:13:01.941Z,84.30
2022-09-25T09:18:33.308Z,84.13
2022-09-25T09:24:04.711Z,82.03
2022-09-25T09:29:35.998Z,83.42
2022-09-25T09:35:07.590Z,82.71
2022-09-25T09:40:38.987Z,81.68
2022-09-25T09:51:39.843Z,81.31
2022-09-25T09:57:11.198Z,80.00
2022-09-25T10:02:42.542Z,78.73
2022-09-25T10:08:13.812Z,79.26
2022-09-25T10:13:45.287Z,78.11
2022-09-25T10:19:17.001Z,77.25
2022-09-25T10:24:48.228Z,77.15
2022-09-25T10:30:19.627Z,75.99
2022-09-25T10:41:20.717Z,74.91
2022-09-25T10:46:52.366Z,73.26
2022-09-25T10:52:24.059Z,74.02
2022-09-25T10:57:55.387Z,73.06
2022-09-25T11:08:56.171Z,68.11
2022-09-25T11:14:27.496Z,69.16
2022-09-25T11:19:59.327Z,69.80
2022-09-25T11:25:30.671Z,70.74
2022-09-25T11:31:02.477Z,69.75
2022-09-25T11:36:34.220Z,67.94
2022-09-25T11:44:25.452Z,67.59
2022-09-25T11:49:56.539Z,69.08
2022-09-25T11:55:28.069Z,68.02
2022-09-25T12:00:59.320Z,69.19
2022-09-25T12:06:30.589Z,70.16
2022-09-25T12:12:01.965Z,69.68
2022-09-25T12:17:33.255Z,68.76
2022-09-25T12:23:04.608Z,67.71
2022-09-25T12:28:35.940Z,69.43
2022-09-25T12:34:07.342Z,70.51
2022-09-25T12:39:38.541Z,70.71
2022-09-25T12:45:09.949Z,69.36
2022-09-25T12:50:41.746Z,68.73
2022-09-25T12:56:13.494Z,68.29
2022-09-25T13:01:45.444Z,68.49
2022-09-25T13:07:17.117Z,68.87
2022-09-25T13:12:48.907Z,69.31
2022-09-25T13:23:49.699Z,68.67
2022-09-25T13:29:21.540Z,69.26
2022-09-25T13:34:53.408Z,69.53
2022-09-25T13:40:25.328Z,69.71
2022-09-25T13:45:57.338Z,70.01
2022-09-25T13:51:28.757Z,71.28
2022-09-25T13:57:00.080Z,70.72
2022-09-25T14:08:01.003Z,70.75
2022-09-25T14:13:32.686Z,71.62
2022-09-25T14:19:04.162Z,70.95
2022-09-25T14:24:35.525Z,71.75
2022-09-25T14:35:36.300Z,71.09
2022-09-25T14:41:07.943Z,71.36
2022-09-25T14:46:39.477Z,70.41
2022-09-25T14:57:41.577Z,69.62
2022-09-25T15:03:12.794Z,69.33
2022-09-25T15:19:46.734Z,71.06
2022-09-25T15:25:18.321Z,70.00
2022-09-25T15:30:49.931Z,69.77
2022-09-25T15:36:21.568Z,69.81
2022-09-25T15:41:52.811Z,71.13
2022-09-25T15:47:24.265Z,71.49
2022-09-25T15:52:55.893Z,71.39
2022-09-25T15:58:27.411Z,71.70
2022-09-25T16:03:58.832Z,70.74
2022-09-25T16:09:30.105Z,72.18
2022-09-25T16:15:01.451Z,72.66
2022-09-25T16:20:32.794Z,71.60
2022-09-25T16:31:36.205Z,71.51
2022-09-25T16:37:08.510Z,73.53
2022-09-25T16:42:39.986Z,72.89
2022-09-25T16:48:11.537Z,74.76
2022-09-25T16:53:43.323Z,74.69
2022-09-25T16:59:14.997Z,75.30
2022-09-25T17:04:46.169Z,75.66
2022-09-25T17:10:17.516Z,76.05
2022-09-25T17:21:18.411Z,77.52
2022-09-25T17:26:50.103Z,77.88
2022-09-25T17:32:21.334Z,77.39
2022-09-25T17:37:52.651Z,77.43
2022-09-25T17:43:24.022Z,78.16
2022-09-25T17:48:55.418Z,77.67
2022-09-25T17:54:27.229Z,78.14
2022-09-25T17:59:58.537Z,78.96
2022-09-25T18:05:30.315Z,79.12
2022-09-25T18:11:02.067Z,77.49
2022-09-25T18:16:33.519Z,79.16
2022-09-25T18:22:05.230Z,80.48
2022-09-25T18:27:36.977Z,80.74
2022-09-25T18:33:08.318Z,80.90
2022-09-25T18:38:40.109Z,80.63
2022-09-25T18:44:11.915Z,80.87
2022-09-25T18:55:13.425Z,81.15
2022-09-25T19:00:44.932Z,81.92
2022-09-25T19:06:18.103Z,82.02
2022-09-25T19:11:49.656Z,82.37
2022-09-25T19:17:21.261Z,82.46
2022-09-25T19:22:52.711Z,82.93
2022-09-25T19:28:24.456Z,82.06
2022-09-25T19:33:56.132Z,81.82
2022-09-25T19:39:27.562Z,82.40
2022-09-25T19:50:27.878Z,82.43
2022-09-25T19:58:23.317Z,83.50
2022-09-25T20:03:52.233Z,84.01
2022-09-25T20:14:52.913Z,83.83
2022-09-25T20:20:24.246Z,83.09
2022-09-25T20:25:55.552Z,84.89
2022-09-25T20:31:27.057Z,85.34
2022-09-25T20:36:58.230Z,85.69
2022-09-25T20:42:29.531Z,86.65
2022-09-25T20:48:02.005Z,86.75
2022-09-25T20:53:33.744Z,86.97
2022-09-25T20:59:05.436Z,87.22
2022-09-25T21:04:36.721Z,87.13
2022-09-25T21:10:07.994Z,86.61
2022-09-25T21:15:39.378Z,87.03
2022-09-25T21:21:10.950Z,87.01
2022-09-25T21:26:42.509Z,87.03
2022-09-25T21:32:13.603Z,87.18
2022-09-25T21:37:45.199Z,87.66
2022-09-25T21:43:16.846Z,87.61
2022-09-25T21:48:48.053Z,88.24
2022-09-25T21:54:19.354Z,87.63
2022-09-25T21:59:50.695Z,88.17
2022-09-25T22:05:22.275Z,88.06
2022-09-25T22:10:53.701Z,87.68
2022-09-25T22:21:54.555Z,88.16
2022-09-25T22:27:25.977Z,88.49
2022-09-25T22:32:57.717Z,88.47
2022-09-25T22:38:29.423Z,88.32
2022-09-25T22:44:01.283Z,87.92
2022-09-25T23:00:31.205Z,87.80
2022-09-25T23:06:02.972Z,88.43
2022-09-25T23:11:34.596Z,88.67
2022-09-25T23:17:05.953Z,88.60
2022-09-25T23:22:37.396Z,88.54
2022-09-25T23:28:09.059Z,89.08
2022-09-25T23:33:40.487Z,89.76
2022-09-25T23:39:11.861Z,89.39
2022-09-25T23:44:43.122Z,90.08
2022-09-25T23:50:14.359Z,90.36
2022-09-25T23:55:45.695Z,89.83
